createdAt,value
2019-02-14T00:00:00.000Z,5.5
2019-02-14T00:05:00.000Z,5.5
2019-02-14T00:10:00.000Z,5.6
2019-02-14T00:15:00.000Z,5.7
2019-02-14T00:20:00.000Z,5.7
2019-02-14T00:25:00.000Z,5.8
2019-02-14T00:30:00.000Z,5.8
2019-02-14T00:35:00.000Z,5.8
2019-02-14T00:40:00.000Z,5.9
2019-02-14T00:45:00.000Z,6.0
2019-02-14T00:50:00.000Z,6.0
2019-02-14T00:55:00.000Z,6.0
2019-02-14T01:00:00.000Z,6.0
2019-02-14T01:05:00.000Z,6.0
2019-02-14T01:10:00.000Z,6.1
2019-02-14T01:15:00.000Z,6.1
2019-02-14T01:20:00.000Z,6.1
2019-02-14T01:25:00.000Z,6.1
2019-02-14T01:30:00.000Z,6.1
2019-02-14T01:35:00.000Z,6.1
2019-02-14T01:40:00.000Z,6.1
2019-02-14T01:45:00.000Z,6.1
2019-02-14T01:50:00.000Z,6.1
2019-02-14T01:55:00.000Z,6.1
2019-02-14T02:01:00.000Z,6.1
2019-02-14T02:06:00.000Z,6.1
2019-02-14T02:11:00.000Z,6.1
2019-02-14T02:16:00.000Z,6.1
2019-02-14T02:21:00.000Z,6.1
2019-02-14T02:26:00.000Z,6.1
2019-02-14T02:31:00.000Z,6.1
2019-02-14T02:36:00.000Z,6.1
2019-02-14T02:41:00.000Z,6.1
2019-02-14T02:46:00.000Z,6.0
2019-02-14T02:51:00.000Z,6.0
2019-02-14T02:56:00.000Z,6.0
2019-02-14T03:01:00.000Z,6.0
2019-02-14T03:06:00.000Z,6.0
2019-02-14T03:11:00.000Z,5.9
2019-02-14T03:16:00.000Z,5.9
2019-02-14T03:21:00.000Z,5.9
2019-02-14T03:26:00.000Z,5.9
2019-02-14T03:31:00.000Z,5.9
2019-02-14T03:36:00.000Z,5.9
2019-02-14T03:41:00.000Z,5.8
2019-02-14T03:46:00.000Z,5.8
2019-02-14T03:51:00.000Z,5.8
2019-02-14T03:56:00.000Z,5.7
2019-02-14T04:01:00.000Z,5.7
2019-02-14T04:06:00.000Z,5.6
2019-02-14T04:11:00.000Z,5.5
2019-02-14T04:16:00.000Z,5.5
2019-02-14T04:21:00.000Z,5.4
2019-02-14T04:26:00.000Z,5.4
2019-02-14T04:31:00.000Z,5.3
2019-02-14T04:36:00.000Z,5.3
2019-02-14T04:41:00.000Z,5.2
2019-02-14T04:46:00.000Z,5.2
2019-02-14T04:51:00.000Z,5.2
2019-02-14T04:56:00.000Z,5.2
2019-02-14T05:01:00.000Z,5.2
2019-02-14T05:06:00.000Z,5.2
2019-02-14T05:11:00.000Z,5.2
2019-02-14T05:16:00.000Z,5.2
2019-02-14T05:21:00.000Z,5.2
2019-02-14T05:26:00.000Z,5.2
2019-02-14T05:31:00.000Z,5.2
2019-02-14T05:36:00.000Z,5.2
2019-02-14T05:41:00.000Z,5.2
2019-02-14T05:46:00.000Z,5.2
2019-02-14T05:51:00.000Z,5.3
2019-02-14T05:56:00.000Z,5.3
2019-02-14T06:01:00.000Z,5.4
2019-02-14T06:06:00.000Z,5.4
2019-02-14T06:12:00.000Z,5.5
2019-02-14T06:17:00.000Z,5.5
2019-02-14T06:22:00.000Z,5.5
2019-02-14T06:27:00.000Z,5.6
2019-02-14T06:32:00.000Z,5.6
2019-02-14T06:37:00.000Z,5.6
2019-02-14T06:42:00.000Z,5.7
2019-02-14T06:47:00.000Z,5.7
2019-02-14T06:52:00.000Z,5.7
2019-02-14T06:57:00.000Z,5.7
2019-02-14T07:02:00.000Z,5.8
2019-02-14T07:07:00.000Z,5.8
2019-02-14T07:12:00.000Z,5.9
2019-02-14T07:17:00.000Z,5.9
2019-02-14T07:22:00.000Z,5.9
2019-02-14T07:27:00.000Z,5.9
2019-02-14T07:32:00.000Z,5.9
2019-02-14T07:37:00.000Z,5.9
2019-02-14T07:42:00.000Z,6.0
2019-02-14T07:47:00.000Z,6.1
2019-02-14T07:52:00.000Z,6.2
2019-02-14T07:57:00.000Z,6.2
2019-02-14T08:02:00.000Z,6.3
2019-02-14T08:07:00.000Z,6.5
2019-02-14T08:12:00.000Z,6.7
2019-02-14T08:17:00.000Z,6.9
2019-02-14T08:22:00.000Z,7.1
2019-02-14T08:27:00.000Z,7.1
2019-02-14T08:32:00.000Z,7.1
2019-02-14T08:37:00.000Z,7.1
2019-02-14T08:42:00.000Z,7.1
2019-02-14T08:47:00.000Z,7.3
2019-02-14T08:52:00.000Z,7.4
2019-02-14T08:57:00.000Z,7.5
2019-02-14T09:02:00.000Z,7.8
2019-02-14T09:07:00.000Z,9.3
2019-02-14T09:12:00.000Z,10.6
2019-02-14T09:17:00.000Z,11.5
2019-02-14T09:22:00.000Z,12.1
2019-02-14T09:27:00.000Z,12.3
2019-02-14T09:33:00.000Z,12.5
2019-02-14T09:38:00.000Z,12.8
2019-02-14T09:43:00.000Z,13.2
2019-02-14T09:48:00.000Z,12.7
2019-02-14T09:53:00.000Z,12.3
2019-02-14T09:58:00.000Z,12.2
2019-02-14T10:03:00.000Z,12.5
2019-02-14T10:08:00.000Z,12.8
2019-02-14T10:13:00.000Z,12.9
2019-02-14T10:18:00.000Z,12.7
2019-02-14T10:23:00.000Z,12.5
2019-02-14T10:28:00.000Z,12.6
2019-02-14T10:33:00.000Z,12.4
2019-02-14T10:38:00.000Z,12.3
2019-02-14T10:43:00.000Z,12.1
2019-02-14T10:48:00.000Z,11.6
2019-02-14T10:53:00.000Z,11.3
2019-02-14T10:58:00.000Z,11.6
2019-02-14T11:03:00.000Z,11.9
2019-02-14T11:08:00.000Z,12.0
2019-02-14T11:13:00.000Z,12.0
2019-02-14T11:20:00.000Z,12.0
2019-02-14T11:25:00.000Z,12.0
2019-02-14T11:30:00.000Z,12.0
2019-02-14T11:35:00.000Z,11.8
2019-02-14T11:40:00.000Z,11.8
2019-02-14T11:45:00.000Z,11.9
2019-02-14T11:50:00.000Z,12.1
2019-02-14T11:55:00.000Z,12.0
2019-02-14T12:00:00.000Z,11.7
2019-02-14T12:05:00.000Z,11.5
2019-02-14T12:11:00.000Z,11.3
2019-02-14T12:16:00.000Z,11.2
2019-02-14T12:21:00.000Z,11.1
2019-02-14T12:26:00.000Z,10.8
2019-02-14T12:31:00.000Z,10.6
2019-02-14T12:36:00.000Z,10.5
2019-02-14T12:41:00.000Z,10.5
2019-02-14T12:46:00.000Z,10.6
2019-02-14T12:51:00.000Z,10.8
2019-02-14T12:56:00.000Z,10.9
2019-02-14T13:01:00.000Z,11.1
2019-02-14T13:06:00.000Z,11.3
2019-02-14T13:11:00.000Z,11.6
2019-02-14T13:16:00.000Z,11.8
2019-02-14T13:21:00.000Z,11.8
2019-02-14T13:26:00.000Z,11.8
2019-02-14T13:31:00.000Z,11.9
2019-02-14T13:36:00.000Z,12.0
2019-02-14T13:41:00.000Z,11.9
2019-02-14T13:46:00.000Z,11.9
2019-02-14T13:51:00.000Z,11.9
2019-02-14T13:56:00.000Z,12.0
2019-02-14T14:01:00.000Z,12.0
2019-02-14T14:06:00.000Z,12.0
2019-02-14T14:11:00.000Z,12.0
2019-02-14T14:16:00.000Z,12.0
2019-02-14T14:21:00.000Z,12.0
2019-02-14T14:26:00.000Z,11.9
2019-02-14T14:31:00.000Z,11.7
2019-02-14T14:36:00.000Z,11.4
2019-02-14T14:41:00.000Z,11.2
2019-02-14T14:46:00.000Z,11.1
2019-02-14T14:51:00.000Z,10.9
2019-02-14T14:56:00.000Z,10.7
2019-02-14T15:01:00.000Z,10.7
2019-02-14T15:06:00.000Z,10.6
2019-02-14T15:11:00.000Z,10.5
2019-02-14T15:16:00.000Z,10.4
2019-02-14T15:21:00.000Z,10.2
2019-02-14T15:26:00.000Z,10.2
2019-02-14T15:31:00.000Z,10.1
2019-02-14T15:36:00.000Z,10.0
2019-02-14T15:41:00.000Z,9.9
2019-02-14T15:46:00.000Z,9.9
2019-02-14T15:51:00.000Z,9.8
2019-02-14T15:56:00.000Z,9.8
2019-02-14T16:01:00.000Z,9.8
2019-02-14T16:06:00.000Z,9.7
2019-02-14T16:11:00.000Z,9.7
2019-02-14T16:16:00.000Z,9.7
2019-02-14T16:22:00.000Z,9.6
2019-02-14T16:27:00.000Z,9.6
2019-02-14T16:32:00.000Z,9.5
2019-02-14T16:37:00.000Z,9.5
2019-02-14T16:42:00.000Z,9.4
2019-02-14T16:47:00.000Z,9.3
2019-02-14T16:52:00.000Z,9.3
2019-02-14T16:57:00.000Z,9.2
2019-02-14T17:02:00.000Z,9.1
2019-02-14T17:07:00.000Z,9.0
2019-02-14T17:12:00.000Z,8.9
2019-02-14T17:17:00.000Z,8.8
2019-02-14T17:22:00.000Z,8.7
2019-02-14T17:27:00.000Z,8.6
2019-02-14T17:32:00.000Z,8.5
2019-02-14T17:37:00.000Z,8.5
2019-02-14T17:42:00.000Z,8.4
2019-02-14T17:47:00.000Z,8.3
2019-02-14T17:52:00.000Z,8.3
2019-02-14T17:57:00.000Z,8.2
2019-02-14T18:02:00.000Z,8.2
2019-02-14T18:07:00.000Z,8.1
2019-02-14T18:12:00.000Z,8.1
2019-02-14T18:17:00.000Z,8.1
2019-02-14T18:22:00.000Z,8.0
2019-02-14T18:27:00.000Z,8.0
2019-02-14T18:32:00.000Z,7.9
2019-02-14T18:37:00.000Z,7.9
2019-02-14T18:42:00.000Z,7.9
2019-02-14T18:47:00.000Z,7.8
2019-02-14T18:52:00.000Z,7.7
2019-02-14T18:57:00.000Z,7.6
2019-02-14T19:02:00.000Z,7.6
2019-02-14T19:07:00.000Z,7.5
2019-02-14T19:12:00.000Z,7.4
2019-02-14T19:17:00.000Z,7.4
2019-02-14T19:22:00.000Z,7.3
2019-02-14T19:27:00.000Z,7.3
2019-02-14T19:32:00.000Z,7.3
2019-02-14T19:37:00.000Z,7.3
2019-02-14T19:42:00.000Z,7.2
2019-02-14T19:47:00.000Z,7.2
2019-02-14T19:52:00.000Z,7.1
2019-02-14T19:57:00.000Z,7.1
2019-02-14T20:02:00.000Z,7.0
2019-02-14T20:07:00.000Z,7.0
2019-02-14T20:12:00.000Z,7.0
2019-02-14T20:17:00.000Z,6.9
2019-02-14T20:22:00.000Z,6.9
2019-02-14T20:27:00.000Z,6.9
2019-02-14T20:32:00.000Z,6.8
2019-02-14T20:37:00.000Z,6.8
2019-02-14T20:42:00.000Z,6.7
2019-02-14T20:47:00.000Z,6.7
2019-02-14T20:52:00.000Z,6.7
2019-02-14T20:57:00.000Z,6.6
2019-02-14T21:02:00.000Z,6.6
2019-02-14T21:07:00.000Z,6.6
2019-02-14T21:12:00.000Z,6.6
2019-02-14T21:17:00.000Z,6.6
2019-02-14T21:22:00.000Z,6.6
2019-02-14T21:27:00.000Z,6.6
2019-02-14T21:32:00.000Z,6.6
2019-02-14T21:37:00.000Z,6.7
2019-02-14T21:42:00.000Z,6.7
2019-02-14T21:47:00.000Z,6.7
2019-02-14T21:52:00.000Z,6.7
2019-02-14T21:57:00.000Z,6.7
2019-02-14T22:02:00.000Z,6.6
2019-02-14T22:07:00.000Z,6.6
2019-02-14T22:12:00.000Z,6.6
2019-02-14T22:17:00.000Z,6.5
2019-02-14T22:23:00.000Z,6.5
2019-02-14T22:28:00.000Z,6.4
2019-02-14T22:33:00.000Z,6.4
2019-02-14T22:38:00.000Z,6.4
2019-02-14T22:43:00.000Z,6.4
2019-02-14T22:48:00.000Z,6.4
2019-02-14T22:53:00.000Z,6.4
2019-02-14T22:58:00.000Z,6.4
2019-02-14T23:03:00.000Z,6.3
2019-02-14T23:08:00.000Z,6.3
2019-02-14T23:13:00.000Z,6.3
2019-02-14T23:18:00.000Z,6.3
2019-02-14T23:23:00.000Z,6.3
2019-02-14T23:28:00.000Z,6.3
2019-02-14T23:33:00.000Z,6.2
2019-02-14T23:38:00.000Z,6.2
2019-02-14T23:43:00.000Z,6.2
2019-02-14T23:48:00.000Z,6.1
2019-02-14T23:53:00.000Z,6.1
2019-02-14T23:58:00.000Z,6.1
